createdAt,value
2019-04-21T00:00:32.151Z,7.42
2019-04-21T00:03:11.737Z,7.36
2019-04-21T00:06:13.915Z,7.38
2019-04-21T00:08:48.778Z,7.33
2019-04-21T00:11:37.786Z,7.31
2019-04-21T00:14:00.960Z,7.14
2019-04-21T00:16:32.206Z,6.99
2019-04-21T00:19:10.275Z,6.99
2019-04-21T00:22:05.699Z,7.02
2019-04-21T00:24:45.070Z,7.01
2019-04-21T00:27:21.661Z,7.06
2019-04-21T00:29:58.154Z,7.05
2019-04-21T00:32:29.295Z,7.00
2019-04-21T00:34:56.278Z,6.96
2019-04-21T00:37:45.209Z,7.00
2019-04-21T00:40:23.511Z,6.97
2019-04-21T00:43:04.977Z,6.90
2019-04-21T00:45:34.907Z,6.76
2019-04-21T00:48:16.985Z,6.72
2019-04-21T00:51:03.432Z,6.72
2019-04-21T00:56:46.677Z,6.72
2019-04-21T00:59:28.181Z,6.64
2019-04-21T01:02:09.934Z,6.65
2019-04-21T01:04:53.889Z,6.54
2019-04-21T01:07:37.072Z,6.59
2019-04-21T01:10:05.305Z,6.48
2019-04-21T01:12:51.059Z,6.45
2019-04-21T01:15:37.426Z,6.39
2019-04-21T01:18:06.385Z,6.31
2019-04-21T01:20:21.795Z,6.24
2019-04-21T01:23:04.437Z,6.25
2019-04-21T01:26:05.205Z,6.25
2019-04-21T01:28:39.977Z,6.14
2019-04-21T01:31:17.404Z,6.06
2019-04-21T01:34:09.896Z,6.05
2019-04-21T01:36:49.827Z,6.00
2019-04-21T01:39:35.028Z,5.93
2019-04-21T01:42:03.815Z,5.95
2019-04-21T01:44:41.856Z,5.86
2019-04-21T01:47:16.154Z,5.87
2019-04-21T01:49:52.774Z,5.84
2019-04-21T01:52:50.200Z,5.89
2019-04-21T01:55:54.126Z,5.83
2019-04-21T01:58:23.027Z,5.71
2019-04-21T02:01:15.961Z,5.76
2019-04-21T02:03:58.376Z,5.65
2019-04-21T02:06:33.786Z,5.63
2019-04-21T02:09:03.361Z,5.61
2019-04-21T02:12:05.479Z,5.61
2019-04-21T02:14:50.385Z,5.50
2019-04-21T02:17:20.386Z,5.45
2019-04-21T02:19:55.237Z,5.49
2019-04-21T02:22:46.332Z,5.39
2019-04-21T02:25:14.000Z,5.36
2019-04-21T02:27:49.816Z,5.28
2019-04-21T02:30:47.516Z,5.28
2019-04-21T02:33:32.429Z,5.27
2019-04-21T02:38:39.164Z,5.29
2019-04-21T02:41:09.508Z,5.26
2019-04-21T02:43:46.122Z,5.12
2019-04-21T02:46:23.719Z,5.19
2019-04-21T02:51:52.551Z,5.09
2019-04-21T02:54:48.037Z,4.95
2019-04-21T02:57:08.986Z,4.89
2019-04-21T02:59:50.050Z,4.90
2019-04-21T03:03:19.919Z,4.92
2019-04-21T03:06:20.341Z,4.96
2019-04-21T03:08:59.028Z,4.93
2019-04-21T03:11:24.153Z,4.89
2019-04-21T03:14:14.017Z,4.85
2019-04-21T03:16:35.851Z,4.78
2019-04-21T03:19:36.470Z,4.79
2019-04-21T03:22:12.966Z,4.78
2019-04-21T03:24:53.961Z,4.76
2019-04-21T03:29:59.423Z,4.62
2019-04-21T03:33:16.578Z,4.56
2019-04-21T03:35:49.029Z,4.58
2019-04-21T03:43:12.530Z,4.54
2019-04-21T03:45:42.323Z,4.38
2019-04-21T03:48:35.597Z,4.43
2019-04-21T03:50:56.653Z,4.36
2019-04-21T04:01:40.621Z,4.17
2019-04-21T04:04:26.292Z,4.20
2019-04-21T04:07:26.371Z,4.21
2019-04-21T04:09:52.217Z,4.22
2019-04-21T04:12:18.977Z,4.23
2019-04-21T04:15:16.151Z,4.27
2019-04-21T04:18:04.540Z,4.25
2019-04-21T04:20:43.727Z,4.27
2019-04-21T04:23:42.413Z,4.29
2019-04-21T04:29:04.334Z,4.20
2019-04-21T04:34:18.600Z,4.05
2019-04-21T04:43:05.152Z,3.94
2019-04-21T04:45:32.379Z,4.04
2019-04-21T04:48:11.100Z,4.06
2019-04-21T04:56:31.718Z,4.20
2019-04-21T04:59:23.395Z,4.29
2019-04-21T05:04:35.486Z,4.37
2019-04-21T05:07:16.522Z,4.46
2019-04-21T05:10:07.530Z,4.53
2019-04-21T05:12:27.126Z,4.57
2019-04-21T05:14:59.365Z,4.66
2019-04-21T05:20:12.694Z,4.73
2019-04-21T05:22:42.295Z,4.83
2019-04-21T05:25:21.121Z,5.01
2019-04-21T05:27:54.020Z,5.08
2019-04-21T05:30:50.218Z,5.19
2019-04-21T05:33:53.038Z,5.31
2019-04-21T05:36:59.537Z,5.39
2019-04-21T05:39:57.005Z,5.64
2019-04-21T05:42:47.591Z,5.74
2019-04-21T05:45:36.296Z,5.83
2019-04-21T05:48:25.579Z,5.95
2019-04-21T05:50:57.720Z,6.03
2019-04-21T05:53:35.697Z,6.23
2019-04-21T05:56:17.438Z,6.32
2019-04-21T05:58:48.280Z,6.43
2019-04-21T06:01:37.785Z,6.59
2019-04-21T06:04:45.060Z,6.69
2019-04-21T06:07:04.782Z,6.79
2019-04-21T06:09:40.576Z,6.92
2019-04-21T06:12:10.790Z,7.08
2019-04-21T06:14:52.233Z,7.19
2019-04-21T06:17:25.285Z,7.32
2019-04-21T06:20:05.928Z,7.55
2019-04-21T06:22:39.700Z,7.57
2019-04-21T06:28:04.623Z,7.98
2019-04-21T06:31:08.053Z,8.10
2019-04-21T06:33:44.806Z,8.36
2019-04-21T06:36:42.534Z,8.44
2019-04-21T06:39:31.935Z,8.57
2019-04-21T06:41:48.543Z,8.64
2019-04-21T06:44:22.684Z,8.76
2019-04-21T06:47:04.926Z,8.89
2019-04-21T06:49:30.265Z,9.12
2019-04-21T06:52:44.781Z,9.29
2019-04-21T06:55:12.098Z,9.36
2019-04-21T06:57:39.054Z,9.44
2019-04-21T07:00:27.822Z,9.72
2019-04-21T07:03:11.027Z,9.82
2019-04-21T07:05:41.300Z,9.99
2019-04-21T07:08:30.941Z,10.31
2019-04-21T07:11:08.453Z,10.51
2019-04-21T07:13:53.463Z,10.49
2019-04-21T07:16:37.165Z,10.68
2019-04-21T07:19:15.663Z,10.73
2019-04-21T07:21:45.536Z,10.88
2019-04-21T07:27:02.372Z,11.11
2019-04-21T07:29:54.962Z,11.31
2019-04-21T07:32:34.818Z,11.63
2019-04-21T07:35:09.757Z,11.71
2019-04-21T07:37:49.269Z,11.87
2019-04-21T07:40:22.347Z,12.01
2019-04-21T07:43:05.545Z,12.29
2019-04-21T07:45:40.821Z,12.29
2019-04-21T07:48:29.563Z,12.45
2019-04-21T07:51:45.259Z,12.73
2019-04-21T07:54:37.381Z,13.00
2019-04-21T07:57:00.588Z,12.99
2019-04-21T08:00:21.282Z,13.12
2019-04-21T08:02:44.706Z,13.21
2019-04-21T08:05:35.546Z,13.58
2019-04-21T08:07:59.208Z,13.76
2019-04-21T08:10:39.135Z,13.76
2019-04-21T08:13:35.242Z,13.87
2019-04-21T08:16:10.975Z,13.92
2019-04-21T08:18:45.545Z,14.12
2019-04-21T08:21:20.642Z,14.28
2019-04-21T08:23:58.263Z,14.50
2019-04-21T08:26:38.297Z,14.60
2019-04-21T08:29:19.176Z,14.71
2019-04-21T08:31:56.519Z,14.92
2019-04-21T08:37:04.196Z,15.10
2019-04-21T08:39:49.765Z,15.19
2019-04-21T08:42:18.524Z,15.30
2019-04-21T08:45:06.029Z,15.52
2019-04-21T08:47:36.461Z,15.76
2019-04-21T08:50:11.240Z,15.84
2019-04-21T08:56:04.447Z,15.97
2019-04-21T08:59:10.926Z,16.13
2019-04-21T09:01:55.256Z,16.28
2019-04-21T09:04:30.635Z,16.28
2019-04-21T09:07:12.816Z,16.33
2019-04-21T09:09:58.034Z,16.59
2019-04-21T09:12:37.276Z,16.90
2019-04-21T09:15:30.025Z,17.10
2019-04-21T09:17:53.609Z,16.93
2019-04-21T09:23:23.328Z,17.02
2019-04-21T09:25:58.931Z,17.11
2019-04-21T09:28:32.672Z,17.29
2019-04-21T09:30:58.493Z,17.45
2019-04-21T09:33:37.662Z,17.77
2019-04-21T09:36:13.048Z,17.77
2019-04-21T09:38:57.725Z,17.91
2019-04-21T09:41:40.977Z,18.05
2019-04-21T09:44:25.958Z,18.00
2019-04-21T09:46:56.619Z,18.10
2019-04-21T09:49:32.858Z,18.16
2019-04-21T09:52:15.088Z,18.25
2019-04-21T09:54:54.748Z,18.38
2019-04-21T09:57:31.171Z,18.51
2019-04-21T10:00:05.066Z,18.62
2019-04-21T10:02:43.864Z,18.73
2019-04-21T10:05:10.057Z,18.68
2019-04-21T10:07:44.643Z,18.68
2019-04-21T10:10:27.985Z,18.89
2019-04-21T10:13:10.957Z,19.01
2019-04-21T10:15:48.528Z,19.20
2019-04-21T10:18:22.298Z,19.45
2019-04-21T10:20:55.343Z,19.39
2019-04-21T10:23:30.212Z,19.40
2019-04-21T10:26:04.282Z,19.37
2019-04-21T10:28:39.122Z,19.45
2019-04-21T10:31:12.567Z,19.78
2019-04-21T10:33:48.438Z,20.10
2019-04-21T10:36:22.777Z,20.21
2019-04-21T10:38:58.965Z,20.20
2019-04-21T10:41:33.194Z,20.07
2019-04-21T10:44:23.183Z,20.37
2019-04-21T10:47:06.877Z,20.46
2019-04-21T10:49:42.217Z,20.54
2019-04-21T10:52:37.387Z,20.82
2019-04-21T10:55:44.804Z,20.60
2019-04-21T10:58:20.328Z,20.84
2019-04-21T11:01:16.789Z,21.10
2019-04-21T11:04:07.477Z,21.47
2019-04-21T11:07:05.191Z,21.64
2019-04-21T11:09:36.093Z,21.36
2019-04-21T11:12:10.837Z,21.33
2019-04-21T11:14:53.599Z,21.35
2019-04-21T11:17:36.597Z,21.74
2019-04-21T11:20:12.888Z,21.87
2019-04-21T11:22:57.722Z,21.79
2019-04-21T11:25:48.191Z,21.91
2019-04-21T11:28:22.909Z,21.92
2019-04-21T11:30:57.237Z,21.75
2019-04-21T11:33:31.356Z,21.95
2019-04-21T11:36:07.028Z,22.16
2019-04-21T11:39:05.374Z,22.24
2019-04-21T11:41:23.856Z,22.21
2019-04-21T11:44:07.790Z,22.44
2019-04-21T11:46:42.614Z,22.45
2019-04-21T11:49:17.982Z,22.53
2019-04-21T11:51:53.123Z,22.64
2019-04-21T11:54:26.942Z,22.71
2019-04-21T11:57:07.978Z,22.65
2019-04-21T11:59:45.893Z,22.71
2019-04-21T12:02:28.289Z,22.86
2019-04-21T12:05:03.514Z,22.91
2019-04-21T12:07:38.994Z,22.78
2019-04-21T12:10:13.438Z,23.07
2019-04-21T12:12:47.543Z,23.13
2019-04-21T12:15:22.918Z,23.07
2019-04-21T12:18:06.278Z,23.31
2019-04-21T12:20:51.806Z,23.39
2019-04-21T12:23:24.770Z,23.37
2019-04-21T12:25:59.119Z,23.51
2019-04-21T12:28:41.941Z,23.61
2019-04-21T12:31:34.126Z,23.41
2019-04-21T12:34:12.082Z,23.43
2019-04-21T12:36:47.055Z,23.29
2019-04-21T12:39:32.738Z,23.42
2019-04-21T12:42:16.782Z,23.46
2019-04-21T12:44:51.747Z,23.47
2019-04-21T12:47:27.942Z,23.72
2019-04-21T12:50:14.890Z,23.96
2019-04-21T12:52:59.911Z,24.00
2019-04-21T12:55:37.449Z,23.93
2019-04-21T12:58:11.255Z,24.01
2019-04-21T13:00:45.489Z,24.22
2019-04-21T13:03:23.313Z,24.15
2019-04-21T13:05:56.103Z,24.22
2019-04-21T13:08:41.544Z,24.16
2019-04-21T13:11:15.156Z,24.27
2019-04-21T13:13:50.321Z,24.26
2019-04-21T13:16:25.860Z,24.18
2019-04-21T13:19:00.773Z,24.24
2019-04-21T13:21:36.141Z,24.51
2019-04-21T13:24:11.680Z,24.75
2019-04-21T13:26:58.484Z,25.12
2019-04-21T13:29:42.104Z,25.23
2019-04-21T13:32:16.548Z,25.12
2019-04-21T13:34:52.771Z,25.15
2019-04-21T13:37:27.703Z,24.91
2019-04-21T13:40:39.764Z,24.69
2019-04-21T13:43:17.082Z,24.50
2019-04-21T13:46:03.812Z,24.77
2019-04-21T13:48:40.326Z,24.92
2019-04-21T13:51:15.362Z,25.04
2019-04-21T13:53:49.544Z,25.13
2019-04-21T13:56:24.774Z,25.09
2019-04-21T13:59:00.021Z,24.96
2019-04-21T14:01:37.666Z,24.94
2019-04-21T14:04:11.599Z,24.78
2019-04-21T14:06:46.070Z,24.87
2019-04-21T14:09:40.327Z,24.89
2019-04-21T14:12:05.387Z,24.79
2019-04-21T14:14:50.358Z,24.76
2019-04-21T14:17:40.595Z,24.90
2019-04-21T14:20:15.684Z,24.86
2019-04-21T14:22:51.813Z,24.72
2019-04-21T14:25:37.575Z,24.92
2019-04-21T14:28:15.667Z,24.90
2019-04-21T14:31:02.227Z,24.89
2019-04-21T14:33:37.952Z,24.79
2019-04-21T14:36:12.834Z,24.70
2019-04-21T14:38:46.966Z,24.80
2019-04-21T14:41:22.252Z,25.00
2019-04-21T14:43:56.939Z,25.14
2019-04-21T14:46:40.364Z,25.43
2019-04-21T14:49:27.057Z,25.64
2019-04-21T14:52:10.809Z,25.58
2019-04-21T14:55:16.699Z,25.86
2019-04-21T14:57:51.609Z,25.93
2019-04-21T15:00:31.181Z,26.17
2019-04-21T15:03:05.580Z,26.08
2019-04-21T15:05:53.425Z,25.86
2019-04-21T15:08:44.939Z,25.82
2019-04-21T15:11:19.922Z,25.59
2019-04-21T15:13:55.611Z,25.37
2019-04-21T15:16:40.793Z,25.14
2019-04-21T15:19:16.884Z,25.07
2019-04-21T15:21:52.407Z,24.92
2019-04-21T15:24:30.024Z,24.72
2019-04-21T15:27:16.934Z,24.38
2019-04-21T15:29:51.140Z,24.23
2019-04-21T15:32:40.227Z,23.95
2019-04-21T15:35:15.308Z,23.78
2019-04-21T15:37:49.976Z,23.57
2019-04-21T15:40:36.354Z,23.45
2019-04-21T15:43:08.546Z,23.45
2019-04-21T15:45:42.492Z,23.23
2019-04-21T15:48:16.117Z,23.19
2019-04-21T15:50:51.818Z,23.04
2019-04-21T15:53:27.746Z,22.95
2019-04-21T15:56:46.975Z,22.89
2019-04-21T16:00:02.733Z,22.84
2019-04-21T16:02:44.892Z,22.61
2019-04-21T16:05:20.693Z,22.55
2019-04-21T16:07:56.051Z,22.48
2019-04-21T16:10:47.144Z,22.48
2019-04-21T16:13:23.688Z,22.43
2019-04-21T16:15:59.230Z,22.37
2019-04-21T16:18:34.259Z,22.29
2019-04-21T16:21:20.056Z,22.27
2019-04-21T16:24:09.007Z,22.34
2019-04-21T16:26:52.863Z,22.29
2019-04-21T16:29:37.378Z,22.26
2019-04-21T16:32:14.620Z,22.34
2019-04-21T16:34:54.244Z,22.31
2019-04-21T16:37:23.562Z,22.36
2019-04-21T16:39:56.453Z,22.29
2019-04-21T16:42:30.058Z,22.23
2019-04-21T16:45:05.341Z,22.21
2019-04-21T16:47:40.006Z,22.16
2019-04-21T16:50:16.013Z,22.10
2019-04-21T16:53:22.013Z,21.98
2019-04-21T16:56:13.039Z,21.89
2019-04-21T16:58:52.850Z,21.87
2019-04-21T17:01:49.367Z,21.89
2019-04-21T17:04:38.315Z,21.91
2019-04-21T17:07:26.147Z,22.02
2019-04-21T17:09:59.185Z,22.04
2019-04-21T17:12:35.605Z,21.97
2019-04-21T17:15:33.790Z,21.84
2019-04-21T17:18:07.853Z,21.70
2019-04-21T17:20:37.034Z,21.55
2019-04-21T17:23:04.023Z,21.41
2019-04-21T17:25:39.194Z,21.29
2019-04-21T17:28:13.232Z,21.20
2019-04-21T17:30:48.461Z,21.06
2019-04-21T17:33:27.897Z,20.95
2019-04-21T17:36:07.492Z,20.90
2019-04-21T17:39:04.795Z,20.79
2019-04-21T17:42:05.581Z,20.63
2019-04-21T17:44:29.798Z,20.44
2019-04-21T17:47:25.303Z,20.47
2019-04-21T17:50:02.613Z,20.26
2019-04-21T17:52:47.202Z,20.09
2019-04-21T17:55:40.172Z,19.97
2019-04-21T17:58:27.867Z,19.72
2019-04-21T18:01:13.541Z,19.64
2019-04-21T18:03:54.380Z,19.45
2019-04-21T18:06:10.095Z,19.36
2019-04-21T18:08:55.064Z,19.32
2019-04-21T18:11:28.946Z,19.23
2019-04-21T18:13:47.330Z,19.04
2019-04-21T18:16:33.646Z,18.91
2019-04-21T18:19:08.590Z,18.69
2019-04-21T18:22:06.521Z,18.57
2019-04-21T18:24:48.858Z,18.53
2019-04-21T18:27:15.517Z,18.38
2019-04-21T18:29:54.666Z,18.33
2019-04-21T18:32:36.126Z,18.00
2019-04-21T18:35:24.657Z,17.79
2019-04-21T18:38:28.106Z,17.60
2019-04-21T18:41:27.889Z,17.35
2019-04-21T18:44:38.790Z,17.10
2019-04-21T18:47:22.452Z,16.96
2019-04-21T18:50:19.862Z,16.69
2019-04-21T18:53:09.025Z,16.50
2019-04-21T18:55:41.870Z,16.50
2019-04-21T18:58:13.826Z,16.36
2019-04-21T19:00:49.384Z,16.14
2019-04-21T19:03:33.969Z,16.21
2019-04-21T19:06:10.902Z,16.10
2019-04-21T19:11:39.295Z,15.84
2019-04-21T19:14:27.997Z,15.68
2019-04-21T19:17:01.120Z,15.56
2019-04-21T19:19:41.195Z,15.42
2019-04-21T19:22:00.141Z,15.45
2019-04-21T19:24:50.585Z,15.34
2019-04-21T19:30:23.460Z,15.14
2019-04-21T19:32:37.550Z,15.13
2019-04-21T19:34:59.943Z,15.00
2019-04-21T19:37:40.083Z,14.99
2019-04-21T19:40:33.038Z,14.80
2019-04-21T19:43:17.082Z,14.67
2019-04-21T19:45:54.050Z,14.54
2019-04-21T19:48:36.661Z,14.51
2019-04-21T19:51:08.834Z,14.43
2019-04-21T19:53:41.597Z,14.25
2019-04-21T19:56:05.926Z,14.24
2019-04-21T19:58:47.496Z,14.14
2019-04-21T20:01:23.536Z,14.04
2019-04-21T20:04:08.452Z,14.02
2019-04-21T20:07:01.762Z,13.98
2019-04-21T20:09:45.149Z,13.88
2019-04-21T20:12:39.926Z,13.78
2019-04-21T20:15:20.290Z,13.67
2019-04-21T20:17:42.199Z,13.55
2019-04-21T20:20:07.013Z,13.45
2019-04-21T20:22:45.096Z,13.45
2019-04-21T20:25:21.306Z,13.49
2019-04-21T20:28:01.608Z,13.31
2019-04-21T20:30:48.835Z,13.15
2019-04-21T20:33:49.285Z,13.16
2019-04-21T20:36:21.108Z,13.02
2019-04-21T20:38:47.085Z,12.95
2019-04-21T20:41:22.367Z,12.89
2019-04-21T20:44:06.097Z,12.83
2019-04-21T20:46:39.885Z,12.82
2019-04-21T20:49:14.430Z,12.75
2019-04-21T20:52:17.504Z,12.82
2019-04-21T20:54:48.311Z,12.82
2019-04-21T20:57:39.813Z,12.96
2019-04-21T21:00:19.277Z,12.92
2019-04-21T21:03:09.286Z,12.93
2019-04-21T21:05:27.287Z,12.96
2019-04-21T21:08:15.037Z,13.01
2019-04-21T21:10:38.580Z,13.04
2019-04-21T21:13:37.866Z,13.15
2019-04-21T21:16:19.933Z,13.06
2019-04-21T21:19:08.201Z,13.10
2019-04-21T21:21:24.350Z,13.08
2019-04-21T21:24:05.487Z,12.98
2019-04-21T21:26:36.794Z,13.00
2019-04-21T21:29:18.503Z,12.91
2019-04-21T21:31:55.891Z,12.92
2019-04-21T21:34:29.381Z,12.86
2019-04-21T21:37:14.188Z,12.85
2019-04-21T21:39:54.852Z,12.72
2019-04-21T21:42:05.078Z,12.67
2019-04-21T21:44:39.427Z,12.60
2019-04-21T21:47:48.592Z,12.39
2019-04-21T21:50:18.329Z,12.47
2019-04-21T21:52:57.162Z,12.41
2019-04-21T21:55:21.565Z,12.34
2019-04-21T21:58:01.149Z,12.23
2019-04-21T22:00:32.221Z,12.13
2019-04-21T22:03:17.554Z,12.03
2019-04-21T22:05:59.709Z,11.96
2019-04-21T22:08:28.276Z,11.85
2019-04-21T22:11:03.274Z,11.77
2019-04-21T22:13:47.621Z,11.79
2019-04-21T22:16:27.536Z,11.85
2019-04-21T22:19:21.913Z,11.75
2019-04-21T22:22:00.700Z,11.60
2019-04-21T22:24:46.408Z,11.53
2019-04-21T22:27:09.449Z,11.44
2019-04-21T22:29:56.976Z,11.35
2019-04-21T22:32:43.712Z,11.29
2019-04-21T22:35:31.532Z,11.31
2019-04-21T22:38:25.672Z,11.24
2019-04-21T22:41:09.305Z,11.18
2019-04-21T22:43:43.406Z,11.12
2019-04-21T22:46:24.410Z,11.09
2019-04-21T22:49:04.934Z,11.01
2019-04-21T22:51:53.855Z,10.99
2019-04-21T22:54:34.305Z,10.95
2019-04-21T22:57:12.282Z,10.86
2019-04-21T22:59:40.553Z,10.81
2019-04-21T23:02:22.169Z,10.76
2019-04-21T23:04:54.643Z,10.69
2019-04-21T23:07:26.703Z,10.62
2019-04-21T23:10:01.091Z,10.53
2019-04-21T23:12:38.690Z,10.46
2019-04-21T23:15:15.400Z,10.50
2019-04-21T23:18:11.958Z,10.52
2019-04-21T23:20:47.733Z,10.39
2019-04-21T23:23:32.027Z,10.35
2019-04-21T23:25:55.954Z,10.29
2019-04-21T23:28:40.498Z,10.26
2019-04-21T23:31:11.886Z,10.17
2019-04-21T23:33:29.007Z,10.09
2019-04-21T23:36:11.055Z,10.07
2019-04-21T23:38:43.974Z,10.02
2019-04-21T23:41:13.134Z,10.02
2019-04-21T23:43:53.112Z,9.99
2019-04-21T23:46:28.171Z,9.96
2019-04-21T23:49:15.130Z,9.89
2019-04-21T23:51:42.038Z,9.81
2019-04-21T23:54:09.148Z,9.74
2019-04-21T23:56:46.235Z,9.69
2019-04-21T23:59:18.641Z,9.67
